sensor_id;sensor_type;location;lat;lon;timestamp;P1;durP1;ratioP1;P2;durP2;ratioP2
22107;SDS011;11220;48.812;9.128;2023-04-06T00:00:13;0.68;;;0.60;;
22107;SDS011;11220;48.812;9.128;2023-04-06T00:02:39;0.40;;;0.40;;
22107;SDS011;11220;48.812;9.128;2023-04-06T00:05:05;0.40;;;0.40;;
22107;SDS011;11220;48.812;9.128;2023-04-06T00:07:31;0.40;;;0.40;;
22107;SDS011;11220;48.812;9.128;2023-04-06T00:09:58;0.60;;;0.45;;
22107;SDS011;11220;48.812;9.128;2023-04-06T00:12:23;0.50;;;0.50;;
22107;SDS011;11220;48.812;9.128;2023-04-06T00:14:49;0.52;;;0.40;;
22107;SDS011;11220;48.812;9.128;2023-04-06T00:17:15;0.40;;;0.40;;
22107;SDS011;11220;48.812;9.128;2023-04-06T00:19:40;0.40;;;0.40;;
22107;SDS011;11220;48.812;9.128;2023-04-06T00:22:06;0.47;;;0.47;;
22107;SDS011;11220;48.812;9.128;2023-04-06T00:24:31;0.50;;;0.50;;
22107;SDS011;11220;48.812;9.128;2023-04-06T00:26:57;0.50;;;0.50;;
22107;SDS011;11220;48.812;9.128;2023-04-06T00:29:22;0.50;;;0.50;;
22107;SDS011;11220;48.812;9.128;2023-04-06T00:31:48;0.43;;;0.43;;
22107;SDS011;11220;48.812;9.128;2023-04-06T00:34:13;0.50;;;0.50;;
22107;SDS011;11220;48.812;9.128;2023-04-06T00:36:40;0.50;;;0.50;;
22107;SDS011;11220;48.812;9.128;2023-04-06T00:39:06;0.32;;;0.32;;
22107;SDS011;11220;48.812;9.128;2023-04-06T00:41:32;0.40;;;0.40;;
22107;SDS011;11220;48.812;9.128;2023-04-06T00:43:57;0.40;;;0.40;;
22107;SDS011;11220;48.812;9.128;2023-04-06T00:46:23;0.52;;;0.52;;
22107;SDS011;11220;48.812;9.128;2023-04-06T00:48:48;0.40;;;0.40;;
22107;SDS011;11220;48.812;9.128;2023-04-06T00:51:14;0.52;;;0.43;;
22107;SDS011;11220;48.812;9.128;2023-04-06T00:53:40;0.35;;;0.35;;
22107;SDS011;11220;48.812;9.128;2023-04-06T00:56:05;0.85;;;0.47;;
22107;SDS011;11220;48.812;9.128;2023-04-06T00:58:31;0.40;;;0.40;;
22107;SDS011;11220;48.812;9.128;2023-04-06T01:00:57;0.47;;;0.40;;
22107;SDS011;11220;48.812;9.128;2023-04-06T01:03:23;0.65;;;0.65;;
22107;SDS011;11220;48.812;9.128;2023-04-06T01:05:48;0.40;;;0.40;;
22107;SDS011;11220;48.812;9.128;2023-04-06T01:08:14;0.52;;;0.40;;
22107;SDS011;11220;48.812;9.128;2023-04-06T01:10:39;0.60;;;0.50;;
22107;SDS011;11220;48.812;9.128;2023-04-06T01:13:05;0.60;;;0.40;;
22107;SDS011;11220;48.812;9.128;2023-04-06T01:15:32;0.30;;;0.30;;
22107;SDS011;11220;48.812;9.128;2023-04-06T01:17:58;0.40;;;0.40;;
22107;SDS011;11220;48.812;9.128;2023-04-06T01:20:24;0.50;;;0.50;;
22107;SDS011;11220;48.812;9.128;2023-04-06T01:22:49;0.50;;;0.50;;
22107;SDS011;11220;48.812;9.128;2023-04-06T01:25:15;0.40;;;0.40;;
22107;SDS011;11220;48.812;9.128;2023-04-06T01:27:40;0.40;;;0.40;;
22107;SDS011;11220;48.812;9.128;2023-04-06T01:30:06;0.38;;;0.38;;
22107;SDS011;11220;48.812;9.128;2023-04-06T01:32:32;0.40;;;0.40;;
22107;SDS011;11220;48.812;9.128;2023-04-06T01:34:57;0.50;;;0.50;;
22107;SDS011;11220;48.812;9.128;2023-04-06T01:37:23;0.40;;;0.40;;
22107;SDS011;11220;48.812;9.128;2023-04-06T01:39:48;0.40;;;0.40;;
22107;SDS011;11220;48.812;9.128;2023-04-06T01:42:15;0.55;;;0.50;;
22107;SDS011;11220;48.812;9.128;2023-04-06T01:44:40;0.40;;;0.40;;
22107;SDS011;11220;48.812;9.128;2023-04-06T01:47:06;0.50;;;0.50;;
22107;SDS011;11220;48.812;9.128;2023-04-06T01:49:31;0.40;;;0.40;;
22107;SDS011;11220;48.812;9.128;2023-04-06T01:51:57;0.40;;;0.40;;
22107;SDS011;11220;48.812;9.128;2023-04-06T01:54:22;0.70;;;0.45;;
22107;SDS011;11220;48.812;9.128;2023-04-06T01:56:48;0.40;;;0.40;;
22107;SDS011;11220;48.812;9.128;2023-04-06T01:59:15;0.47;;;0.47;;
22107;SDS011;11220;48.812;9.128;2023-04-06T02:01:41;0.52;;;0.52;;
22107;SDS011;11220;48.812;9.128;2023-04-06T02:04:06;0.60;;;0.50;;
22107;SDS011;11220;48.812;9.128;2023-04-06T02:06:31;0.50;;;0.50;;
22107;SDS011;11220;48.812;9.128;2023-04-06T02:08:57;0.30;;;0.30;;
22107;SDS011;11220;48.812;9.128;2023-04-06T02:11:22;0.40;;;0.40;;
22107;SDS011;11220;48.812;9.128;2023-04-06T02:13:48;0.40;;;0.40;;
22107;SDS011;11220;48.812;9.128;2023-04-06T02:16:14;0.60;;;0.45;;
22107;SDS011;11220;48.812;9.128;2023-04-06T02:18:40;0.80;;;0.50;;
22107;SDS011;11220;48.812;9.128;2023-04-06T02:21:06;0.50;;;0.50;;
22107;SDS011;11220;48.812;9.128;2023-04-06T02:23:31;0.50;;;0.50;;
22107;SDS011;11220;48.812;9.128;2023-04-06T02:25:57;0.40;;;0.40;;
22107;SDS011;11220;48.812;9.128;2023-04-06T02:28:23;0.50;;;0.50;;
22107;SDS011;11220;48.812;9.128;2023-04-06T02:30:48;0.40;;;0.30;;
22107;SDS011;11220;48.812;9.128;2023-04-06T02:33:14;0.52;;;0.45;;
22107;SDS011;11220;48.812;9.128;2023-04-06T02:35:39;0.50;;;0.50;;
22107;SDS011;11220;48.812;9.128;2023-04-06T02:38:05;0.50;;;0.50;;
22107;SDS011;11220;48.812;9.128;2023-04-06T02:40:30;0.50;;;0.47;;
22107;SDS011;11220;48.812;9.128;2023-04-06T02:42:56;0.40;;;0.40;;
22107;SDS011;11220;48.812;9.128;2023-04-06T02:45:21;0.25;;;0.25;;
22107;SDS011;11220;48.812;9.128;2023-04-06T02:47:47;0.40;;;0.35;;
22107;SDS011;11220;48.812;9.128;2023-04-06T02:50:12;0.32;;;0.32;;
22107;SDS011;11220;48.812;9.128;2023-04-06T02:52:38;0.40;;;0.40;;
22107;SDS011;11220;48.812;9.128;2023-04-06T02:55:04;0.45;;;0.45;;
22107;SDS011;11220;48.812;9.128;2023-04-06T02:57:32;0.40;;;0.40;;
22107;SDS011;11220;48.812;9.128;2023-04-06T02:59:57;0.40;;;0.40;;
22107;SDS011;11220;48.812;9.128;2023-04-06T03:02:23;0.40;;;0.40;;
22107;SDS011;11220;48.812;9.128;2023-04-06T03:04:48;0.50;;;0.50;;
22107;SDS011;11220;48.812;9.128;2023-04-06T03:07:14;0.30;;;0.30;;
22107;SDS011;11220;48.812;9.128;2023-04-06T03:09:40;0.30;;;0.30;;
22107;SDS011;11220;48.812;9.128;2023-04-06T03:12:05;0.40;;;0.40;;
22107;SDS011;11220;48.812;9.128;2023-04-06T03:14:31;0.32;;;0.32;;
22107;SDS011;11220;48.812;9.128;2023-04-06T03:16:56;0.40;;;0.30;;
22107;SDS011;11220;48.812;9.128;2023-04-06T03:19:22;0.50;;;0.40;;
22107;SDS011;11220;48.812;9.128;2023-04-06T03:21:47;0.30;;;0.30;;
22107;SDS011;11220;48.812;9.128;2023-04-06T03:24:13;0.40;;;0.35;;
22107;SDS011;11220;48.812;9.128;2023-04-06T03:26:38;0.55;;;0.55;;
22107;SDS011;11220;48.812;9.128;2023-04-06T03:29:04;0.50;;;0.50;;
22107;SDS011;11220;48.812;9.128;2023-04-06T03:31:30;0.40;;;0.40;;
22107;SDS011;11220;48.812;9.128;2023-04-06T03:33:55;0.40;;;0.40;;
22107;SDS011;11220;48.812;9.128;2023-04-06T03:36:21;0.40;;;0.40;;
22107;SDS011;11220;48.812;9.128;2023-04-06T03:38:46;0.65;;;0.50;;
22107;SDS011;11220;48.812;9.128;2023-04-06T03:41:12;0.40;;;0.40;;
22107;SDS011;11220;48.812;9.128;2023-04-06T03:43:38;0.50;;;0.50;;
22107;SDS011;11220;48.812;9.128;2023-04-06T03:46:03;0.35;;;0.35;;
22107;SDS011;11220;48.812;9.128;2023-04-06T03:48:29;0.55;;;0.47;;
22107;SDS011;11220;48.812;9.128;2023-04-06T03:50:54;0.77;;;0.50;;
22107;SDS011;11220;48.812;9.128;2023-04-06T03:53:20;0.40;;;0.40;;
22107;SDS011;11220;48.812;9.128;2023-04-06T03:55:45;0.40;;;0.40;;
22107;SDS011;11220;48.812;9.128;2023-04-06T03:58:11;0.40;;;0.40;;
22107;SDS011;11220;48.812;9.128;2023-04-06T04:00:37;0.50;;;0.50;;
22107;SDS011;11220;48.812;9.128;2023-04-06T04:03:02;0.40;;;0.40;;
22107;SDS011;11220;48.812;9.128;2023-04-06T04:05:28;0.50;;;0.50;;
22107;SDS011;11220;48.812;9.128;2023-04-06T04:07:53;0.47;;;0.47;;
22107;SDS011;11220;48.812;9.128;2023-04-06T04:10:20;0.60;;;0.60;;
22107;SDS011;11220;48.812;9.128;2023-04-06T04:12:45;0.38;;;0.30;;
22107;SDS011;11220;48.812;9.128;2023-04-06T04:15:11;0.40;;;0.40;;
22107;SDS011;11220;48.812;9.128;2023-04-06T04:17:36;0.50;;;0.43;;
22107;SDS011;11220;48.812;9.128;2023-04-06T04:20:02;0.85;;;0.40;;
22107;SDS011;11220;48.812;9.128;2023-04-06T04:22:27;0.30;;;0.30;;
22107;SDS011;11220;48.812;9.128;2023-04-06T04:24:53;0.40;;;0.40;;
22107;SDS011;11220;48.812;9.128;2023-04-06T04:27:18;0.50;;;0.50;;
22107;SDS011;11220;48.812;9.128;2023-04-06T04:29:45;0.40;;;0.40;;
22107;SDS011;11220;48.812;9.128;2023-04-06T04:32:10;0.50;;;0.50;;
22107;SDS011;11220;48.812;9.128;2023-04-06T04:34:36;0.60;;;0.50;;
22107;SDS011;11220;48.812;9.128;2023-04-06T04:37:05;0.47;;;0.47;;
22107;SDS011;11220;48.812;9.128;2023-04-06T04:39:30;0.55;;;0.50;;
22107;SDS011;11220;48.812;9.128;2023-04-06T04:41:56;0.65;;;0.50;;
22107;SDS011;11220;48.812;9.128;2023-04-06T04:44:21;0.40;;;0.40;;
22107;SDS011;11220;48.812;9.128;2023-04-06T04:46:47;0.50;;;0.50;;
22107;SDS011;11220;48.812;9.128;2023-04-06T04:49:12;0.40;;;0.40;;
22107;SDS011;11220;48.812;9.128;2023-04-06T04:51:38;0.40;;;0.40;;
22107;SDS011;11220;48.812;9.128;2023-04-06T04:54:03;0.50;;;0.47;;
22107;SDS011;11220;48.812;9.128;2023-04-06T04:56:29;0.30;;;0.30;;
22107;SDS011;11220;48.812;9.128;2023-04-06T04:58:54;0.90;;;0.50;;
22107;SDS011;11220;48.812;9.128;2023-04-06T05:01:20;0.60;;;0.50;;
22107;SDS011;11220;48.812;9.128;2023-04-06T05:03:45;0.30;;;0.30;;
22107;SDS011;11220;48.812;9.128;2023-04-06T05:06:11;0.45;;;0.45;;
22107;SDS011;11220;48.812;9.128;2023-04-06T05:08:37;0.40;;;0.40;;
22107;SDS011;11220;48.812;9.128;2023-04-06T05:11:02;0.40;;;0.40;;
22107;SDS011;11220;48.812;9.128;2023-04-06T05:13:29;0.65;;;0.52;;
22107;SDS011;11220;48.812;9.128;2023-04-06T05:15:55;0.55;;;0.50;;
22107;SDS011;11220;48.812;9.128;2023-04-06T05:18:21;0.32;;;0.32;;
22107;SDS011;11220;48.812;9.128;2023-04-06T05:20:46;0.45;;;0.40;;
22107;SDS011;11220;48.812;9.128;2023-04-06T05:23:12;0.40;;;0.40;;
22107;SDS011;11220;48.812;9.128;2023-04-06T05:25:37;0.40;;;0.40;;
22107;SDS011;11220;48.812;9.128;2023-04-06T05:28:03;0.40;;;0.40;;
22107;SDS011;11220;48.812;9.128;2023-04-06T05:30:28;0.50;;;0.50;;
22107;SDS011;11220;48.812;9.128;2023-04-06T05:32:55;0.43;;;0.32;;
22107;SDS011;11220;48.812;9.128;2023-04-06T05:35:20;0.30;;;0.25;;
22107;SDS011;11220;48.812;9.128;2023-04-06T05:37:46;0.40;;;0.40;;
22107;SDS011;11220;48.812;9.128;2023-04-06T05:40:11;0.40;;;0.40;;
22107;SDS011;11220;48.812;9.128;2023-04-06T05:42:37;0.45;;;0.45;;
22107;SDS011;11220;48.812;9.128;2023-04-06T05:45:04;0.40;;;0.40;;
22107;SDS011;11220;48.812;9.128;2023-04-06T05:47:34;0.60;;;0.40;;
22107;SDS011;11220;48.812;9.128;2023-04-06T05:49:59;0.40;;;0.40;;
22107;SDS011;11220;48.812;9.128;2023-04-06T05:52:25;0.47;;;0.40;;
22107;SDS011;11220;48.812;9.128;2023-04-06T05:54:51;0.40;;;0.40;;
22107;SDS011;11220;48.812;9.128;2023-04-06T05:57:17;0.40;;;0.40;;
22107;SDS011;11220;48.812;9.128;2023-04-06T05:59:43;0.43;;;0.43;;
22107;SDS011;11220;48.812;9.128;2023-04-06T06:02:08;0.50;;;0.40;;
22107;SDS011;11220;48.812;9.128;2023-04-06T06:04:34;0.40;;;0.40;;
22107;SDS011;11220;48.812;9.128;2023-04-06T06:07:00;0.45;;;0.40;;
22107;SDS011;11220;48.812;9.128;2023-04-06T06:09:25;0.43;;;0.43;;
22107;SDS011;11220;48.812;9.128;2023-04-06T06:11:51;0.40;;;0.40;;
22107;SDS011;11220;48.812;9.128;2023-04-06T06:14:17;0.60;;;0.45;;
22107;SDS011;11220;48.812;9.128;2023-04-06T06:16:42;0.63;;;0.40;;
22107;SDS011;11220;48.812;9.128;2023-04-06T06:19:08;0.43;;;0.40;;
22107;SDS011;11220;48.812;9.128;2023-04-06T06:21:33;0.50;;;0.50;;
22107;SDS011;11220;48.812;9.128;2023-04-06T06:23:59;0.32;;;0.30;;
22107;SDS011;11220;48.812;9.128;2023-04-06T06:26:24;0.60;;;0.45;;
22107;SDS011;11220;48.812;9.128;2023-04-06T06:28:50;0.55;;;0.40;;
22107;SDS011;11220;48.812;9.128;2023-04-06T06:31:15;0.63;;;0.43;;
22107;SDS011;11220;48.812;9.128;2023-04-06T06:33:41;0.77;;;0.35;;
22107;SDS011;11220;48.812;9.128;2023-04-06T06:36:07;0.60;;;0.40;;
22107;SDS011;11220;48.812;9.128;2023-04-06T06:38:32;0.40;;;0.40;;
22107;SDS011;11220;48.812;9.128;2023-04-06T06:40:58;0.30;;;0.30;;
22107;SDS011;11220;48.812;9.128;2023-04-06T06:43:23;0.50;;;0.50;;
22107;SDS011;11220;48.812;9.128;2023-04-06T06:45:49;0.40;;;0.38;;
22107;SDS011;11220;48.812;9.128;2023-04-06T06:48:15;0.38;;;0.38;;
22107;SDS011;11220;48.812;9.128;2023-04-06T06:50:40;0.55;;;0.40;;
22107;SDS011;11220;48.812;9.128;2023-04-06T06:53:06;0.55;;;0.35;;
22107;SDS011;11220;48.812;9.128;2023-04-06T06:55:31;0.65;;;0.45;;
22107;SDS011;11220;48.812;9.128;2023-04-06T06:57:57;0.50;;;0.45;;
22107;SDS011;11220;48.812;9.128;2023-04-06T07:00:22;0.60;;;0.60;;
22107;SDS011;11220;48.812;9.128;2023-04-06T07:02:48;0.75;;;0.45;;
22107;SDS011;11220;48.812;9.128;2023-04-06T07:05:14;0.40;;;0.40;;
22107;SDS011;11220;48.812;9.128;2023-04-06T07:07:40;0.50;;;0.50;;
22107;SDS011;11220;48.812;9.128;2023-04-06T07:10:06;0.88;;;0.50;;
22107;SDS011;11220;48.812;9.128;2023-04-06T07:12:32;0.50;;;0.50;;
22107;SDS011;11220;48.812;9.128;2023-04-06T07:14:58;0.60;;;0.40;;
22107;SDS011;11220;48.812;9.128;2023-04-06T07:17:23;1.13;;;0.50;;
22107;SDS011;11220;48.812;9.128;2023-04-06T07:19:49;0.30;;;0.30;;
22107;SDS011;11220;48.812;9.128;2023-04-06T07:22:14;0.60;;;0.38;;
22107;SDS011;11220;48.812;9.128;2023-04-06T07:24:40;0.98;;;0.50;;
22107;SDS011;11220;48.812;9.128;2023-04-06T07:27:05;0.57;;;0.40;;
22107;SDS011;11220;48.812;9.128;2023-04-06T07:29:32;0.35;;;0.35;;
22107;SDS011;11220;48.812;9.128;2023-04-06T07:31:57;0.50;;;0.40;;
22107;SDS011;11220;48.812;9.128;2023-04-06T07:34:23;0.65;;;0.50;;
22107;SDS011;11220;48.812;9.128;2023-04-06T07:36:48;0.43;;;0.43;;
22107;SDS011;11220;48.812;9.128;2023-04-06T07:39:14;0.73;;;0.60;;
22107;SDS011;11220;48.812;9.128;2023-04-06T07:41:40;0.50;;;0.50;;
22107;SDS011;11220;48.812;9.128;2023-04-06T07:44:06;1.10;;;0.40;;
22107;SDS011;11220;48.812;9.128;2023-04-06T07:46:31;0.75;;;0.40;;
22107;SDS011;11220;48.812;9.128;2023-04-06T07:48:57;0.50;;;0.43;;
22107;SDS011;11220;48.812;9.128;2023-04-06T07:51:24;0.40;;;0.40;;
22107;SDS011;11220;48.812;9.128;2023-04-06T07:53:51;0.50;;;0.50;;
22107;SDS011;11220;48.812;9.128;2023-04-06T07:56:16;0.35;;;0.35;;
22107;SDS011;11220;48.812;9.128;2023-04-06T07:58:42;0.60;;;0.60;;
22107;SDS011;11220;48.812;9.128;2023-04-06T08:01:08;0.68;;;0.50;;
22107;SDS011;11220;48.812;9.128;2023-04-06T08:03:34;0.80;;;0.65;;
22107;SDS011;11220;48.812;9.128;2023-04-06T08:06:00;0.93;;;0.65;;
22107;SDS011;11220;48.812;9.128;2023-04-06T08:08:27;0.55;;;0.50;;
22107;SDS011;11220;48.812;9.128;2023-04-06T08:10:53;0.63;;;0.60;;
22107;SDS011;11220;48.812;9.128;2023-04-06T08:13:18;0.70;;;0.60;;
22107;SDS011;11220;48.812;9.128;2023-04-06T08:15:44;0.50;;;0.50;;
22107;SDS011;11220;48.812;9.128;2023-04-06T08:18:10;0.50;;;0.50;;
22107;SDS011;11220;48.812;9.128;2023-04-06T08:20:36;0.80;;;0.80;;
22107;SDS011;11220;48.812;9.128;2023-04-06T08:23:01;0.55;;;0.55;;
22107;SDS011;11220;48.812;9.128;2023-04-06T08:25:27;1.83;;;0.70;;
22107;SDS011;11220;48.812;9.128;2023-04-06T08:27:52;0.68;;;0.68;;
22107;SDS011;11220;48.812;9.128;2023-04-06T08:30:18;0.85;;;0.68;;
22107;SDS011;11220;48.812;9.128;2023-04-06T08:32:44;0.75;;;0.68;;
22107;SDS011;11220;48.812;9.128;2023-04-06T08:35:10;0.60;;;0.60;;
22107;SDS011;11220;48.812;9.128;2023-04-06T08:37:35;1.00;;;0.80;;
22107;SDS011;11220;48.812;9.128;2023-04-06T08:40:01;0.95;;;0.80;;
22107;SDS011;11220;48.812;9.128;2023-04-06T08:42:28;1.02;;;0.85;;
22107;SDS011;11220;48.812;9.128;2023-04-06T08:44:57;0.68;;;0.68;;
22107;SDS011;11220;48.812;9.128;2023-04-06T08:47:24;0.75;;;0.60;;
22107;SDS011;11220;48.812;9.128;2023-04-06T08:49:49;0.70;;;0.70;;
22107;SDS011;11220;48.812;9.128;2023-04-06T08:52:17;1.02;;;0.80;;
22107;SDS011;11220;48.812;9.128;2023-04-06T08:54:43;0.50;;;0.50;;
22107;SDS011;11220;48.812;9.128;2023-04-06T08:57:09;0.65;;;0.60;;
22107;SDS011;11220;48.812;9.128;2023-04-06T08:59:35;0.70;;;0.65;;
22107;SDS011;11220;48.812;9.128;2023-04-06T09:02:03;0.80;;;0.60;;
22107;SDS011;11220;48.812;9.128;2023-04-06T09:04:30;0.98;;;0.80;;
22107;SDS011;11220;48.812;9.128;2023-04-06T09:06:57;1.88;;;0.80;;
22107;SDS011;11220;48.812;9.128;2023-04-06T09:09:22;0.80;;;0.70;;
22107;SDS011;11220;48.812;9.128;2023-04-06T09:11:50;1.10;;;0.77;;
22107;SDS011;11220;48.812;9.128;2023-04-06T09:14:17;1.15;;;0.60;;
22107;SDS011;11220;48.812;9.128;2023-04-06T09:16:57;0.50;;;0.50;;
22107;SDS011;11220;48.812;9.128;2023-04-06T09:19:23;1.30;;;0.90;;
22107;SDS011;11220;48.812;9.128;2023-04-06T09:21:48;0.60;;;0.60;;
22107;SDS011;11220;48.812;9.128;2023-04-06T09:24:14;0.57;;;0.57;;
22107;SDS011;11220;48.812;9.128;2023-04-06T09:26:46;0.65;;;0.50;;
22107;SDS011;11220;48.812;9.128;2023-04-06T09:29:21;0.60;;;0.60;;
22107;SDS011;11220;48.812;9.128;2023-04-06T09:31:48;0.63;;;0.63;;
22107;SDS011;11220;48.812;9.128;2023-04-06T09:34:20;0.82;;;0.82;;
22107;SDS011;11220;48.812;9.128;2023-04-06T09:36:48;0.60;;;0.50;;
22107;SDS011;11220;48.812;9.128;2023-04-06T09:39:15;0.68;;;0.60;;
22107;SDS011;11220;48.812;9.128;2023-04-06T09:41:49;1.65;;;0.77;;
22107;SDS011;11220;48.812;9.128;2023-04-06T09:44:15;0.90;;;0.55;;
22107;SDS011;11220;48.812;9.128;2023-04-06T09:46:41;0.80;;;0.63;;
22107;SDS011;11220;48.812;9.128;2023-04-06T09:49:08;1.42;;;0.50;;
22107;SDS011;11220;48.812;9.128;2023-04-06T09:51:38;0.65;;;0.52;;
22107;SDS011;11220;48.812;9.128;2023-04-06T09:54:05;0.73;;;0.60;;
22107;SDS011;11220;48.812;9.128;2023-04-06T09:56:41;0.80;;;0.80;;
22107;SDS011;11220;48.812;9.128;2023-04-06T09:59:21;0.80;;;0.70;;
22107;SDS011;11220;48.812;9.128;2023-04-06T10:02:08;0.77;;;0.70;;
22107;SDS011;11220;48.812;9.128;2023-04-06T10:05:09;0.60;;;0.60;;
22107;SDS011;11220;48.812;9.128;2023-04-06T10:07:43;0.77;;;0.68;;
22107;SDS011;11220;48.812;9.128;2023-04-06T10:10:10;0.60;;;0.60;;
22107;SDS011;11220;48.812;9.128;2023-04-06T10:12:39;0.60;;;0.60;;
22107;SDS011;11220;48.812;9.128;2023-04-06T10:15:05;0.73;;;0.73;;
22107;SDS011;11220;48.812;9.128;2023-04-06T10:17:32;0.40;;;0.40;;
22107;SDS011;11220;48.812;9.128;2023-04-06T10:22:36;0.93;;;0.70;;
22107;SDS011;11220;48.812;9.128;2023-04-06T10:25:08;0.47;;;0.47;;
22107;SDS011;11220;48.812;9.128;2023-04-06T10:27:34;0.55;;;0.43;;
22107;SDS011;11220;48.812;9.128;2023-04-06T10:30:00;0.75;;;0.38;;
22107;SDS011;11220;48.812;9.128;2023-04-06T10:32:37;0.57;;;0.50;;
22107;SDS011;11220;48.812;9.128;2023-04-06T10:35:10;0.60;;;0.50;;
22107;SDS011;11220;48.812;9.128;2023-04-06T10:37:48;0.50;;;0.50;;
22107;SDS011;11220;48.812;9.128;2023-04-06T10:40:20;0.73;;;0.68;;
22107;SDS011;11220;48.812;9.128;2023-04-06T10:42:51;0.50;;;0.50;;
22107;SDS011;11220;48.812;9.128;2023-04-06T10:45:18;0.40;;;0.40;;
22107;SDS011;11220;48.812;9.128;2023-04-06T10:47:48;0.57;;;0.50;;
22107;SDS011;11220;48.812;9.128;2023-04-06T10:50:18;0.75;;;0.50;;
22107;SDS011;11220;48.812;9.128;2023-04-06T10:52:44;0.70;;;0.50;;
22107;SDS011;11220;48.812;9.128;2023-04-06T10:55:11;0.45;;;0.45;;
22107;SDS011;11220;48.812;9.128;2023-04-06T10:57:38;0.60;;;0.52;;
22107;SDS011;11220;48.812;9.128;2023-04-06T11:00:04;0.60;;;0.47;;
22107;SDS011;11220;48.812;9.128;2023-04-06T11:02:31;0.68;;;0.47;;
22107;SDS011;11220;48.812;9.128;2023-04-06T11:04:57;0.60;;;0.50;;
22107;SDS011;11220;48.812;9.128;2023-04-06T11:07:26;0.55;;;0.55;;
22107;SDS011;11220;48.812;9.128;2023-04-06T11:09:54;0.60;;;0.50;;
22107;SDS011;11220;48.812;9.128;2023-04-06T11:12:20;0.60;;;0.50;;
22107;SDS011;11220;48.812;9.128;2023-04-06T11:14:52;0.45;;;0.45;;
22107;SDS011;11220;48.812;9.128;2023-04-06T11:17:25;0.55;;;0.50;;
22107;SDS011;11220;48.812;9.128;2023-04-06T11:19:51;0.50;;;0.40;;
22107;SDS011;11220;48.812;9.128;2023-04-06T11:22:17;0.40;;;0.40;;
22107;SDS011;11220;48.812;9.128;2023-04-06T11:24:42;0.80;;;0.32;;
22107;SDS011;11220;48.812;9.128;2023-04-06T11:27:08;0.40;;;0.40;;
22107;SDS011;11220;48.812;9.128;2023-04-06T11:29:34;0.50;;;0.50;;
22107;SDS011;11220;48.812;9.128;2023-04-06T11:32:03;0.45;;;0.35;;
22107;SDS011;11220;48.812;9.128;2023-04-06T11:34:30;0.30;;;0.30;;
22107;SDS011;11220;48.812;9.128;2023-04-06T11:36:59;0.60;;;0.50;;
22107;SDS011;11220;48.812;9.128;2023-04-06T11:39:27;0.30;;;0.25;;
22107;SDS011;11220;48.812;9.128;2023-04-06T11:41:54;0.47;;;0.45;;
22107;SDS011;11220;48.812;9.128;2023-04-06T11:44:33;0.30;;;0.30;;
22107;SDS011;11220;48.812;9.128;2023-04-06T11:47:03;0.35;;;0.30;;
22107;SDS011;11220;48.812;9.128;2023-04-06T11:49:30;0.30;;;0.30;;
22107;SDS011;11220;48.812;9.128;2023-04-06T11:51:57;0.38;;;0.30;;
22107;SDS011;11220;48.812;9.128;2023-04-06T11:54:36;0.73;;;0.30;;
22107;SDS011;11220;48.812;9.128;2023-04-06T11:57:02;0.30;;;0.30;;
22107;SDS011;11220;48.812;9.128;2023-04-06T11:59:29;0.63;;;0.30;;
22107;SDS011;11220;48.812;9.128;2023-04-06T12:01:55;0.20;;;0.20;;
22107;SDS011;11220;48.812;9.128;2023-04-06T12:04:21;0.25;;;0.25;;
22107;SDS011;11220;48.812;9.128;2023-04-06T12:06:47;0.30;;;0.30;;
22107;SDS011;11220;48.812;9.128;2023-04-06T12:09:13;0.20;;;0.20;;
22107;SDS011;11220;48.812;9.128;2023-04-06T12:11:39;0.20;;;0.10;;
22107;SDS011;11220;48.812;9.128;2023-04-06T12:14:05;0.25;;;0.25;;
22107;SDS011;11220;48.812;9.128;2023-04-06T12:16:32;0.10;;;0.10;;
22107;SDS011;11220;48.812;9.128;2023-04-06T12:18:58;0.20;;;0.20;;
22107;SDS011;11220;48.812;9.128;2023-04-06T12:21:24;0.20;;;0.20;;
22107;SDS011;11220;48.812;9.128;2023-04-06T12:23:51;0.25;;;0.25;;
22107;SDS011;11220;48.812;9.128;2023-04-06T12:26:17;0.30;;;0.30;;
22107;SDS011;11220;48.812;9.128;2023-04-06T12:28:42;0.20;;;0.20;;
22107;SDS011;11220;48.812;9.128;2023-04-06T12:31:14;0.30;;;0.30;;
22107;SDS011;11220;48.812;9.128;2023-04-06T12:33:43;0.20;;;0.20;;
22107;SDS011;11220;48.812;9.128;2023-04-06T12:36:12;0.38;;;0.30;;
22107;SDS011;11220;48.812;9.128;2023-04-06T12:38:38;0.20;;;0.20;;
22107;SDS011;11220;48.812;9.128;2023-04-06T12:41:06;0.22;;;0.20;;
22107;SDS011;11220;48.812;9.128;2023-04-06T12:43:31;0.30;;;0.30;;
22107;SDS011;11220;48.812;9.128;2023-04-06T12:45:57;0.20;;;0.20;;
22107;SDS011;11220;48.812;9.128;2023-04-06T12:48:22;0.20;;;0.20;;
22107;SDS011;11220;48.812;9.128;2023-04-06T12:50:54;0.20;;;0.20;;
22107;SDS011;11220;48.812;9.128;2023-04-06T12:53:22;0.30;;;0.30;;
22107;SDS011;11220;48.812;9.128;2023-04-06T12:55:48;0.30;;;0.30;;
22107;SDS011;11220;48.812;9.128;2023-04-06T12:58:14;0.20;;;0.20;;
22107;SDS011;11220;48.812;9.128;2023-04-06T13:00:40;0.20;;;0.20;;
22107;SDS011;11220;48.812;9.128;2023-04-06T13:03:05;0.10;;;0.10;;
22107;SDS011;11220;48.812;9.128;2023-04-06T13:05:31;0.20;;;0.20;;
22107;SDS011;11220;48.812;9.128;2023-04-06T13:07:56;0.20;;;0.20;;
22107;SDS011;11220;48.812;9.128;2023-04-06T13:10:22;0.40;;;0.20;;
22107;SDS011;11220;48.812;9.128;2023-04-06T13:12:48;0.43;;;0.22;;
22107;SDS011;11220;48.812;9.128;2023-04-06T13:15:13;0.20;;;0.20;;
22107;SDS011;11220;48.812;9.128;2023-04-06T13:17:39;0.15;;;0.15;;
22107;SDS011;11220;48.812;9.128;2023-04-06T13:20:05;0.20;;;0.20;;
22107;SDS011;11220;48.812;9.128;2023-04-06T13:22:31;0.20;;;0.20;;
22107;SDS011;11220;48.812;9.128;2023-04-06T13:24:57;1.20;;;0.30;;
22107;SDS011;11220;48.812;9.128;2023-04-06T13:27:22;0.20;;;0.20;;
22107;SDS011;11220;48.812;9.128;2023-04-06T13:29:48;0.15;;;0.15;;
22107;SDS011;11220;48.812;9.128;2023-04-06T13:32:13;0.20;;;0.20;;
22107;SDS011;11220;48.812;9.128;2023-04-06T13:34:39;0.10;;;0.10;;
22107;SDS011;11220;48.812;9.128;2023-04-06T13:37:09;0.30;;;0.20;;
22107;SDS011;11220;48.812;9.128;2023-04-06T13:39:36;0.20;;;0.20;;
22107;SDS011;11220;48.812;9.128;2023-04-06T13:42:02;0.10;;;0.10;;
22107;SDS011;11220;48.812;9.128;2023-04-06T13:44:28;0.10;;;0.10;;
22107;SDS011;11220;48.812;9.128;2023-04-06T13:46:53;0.10;;;0.10;;
22107;SDS011;11220;48.812;9.128;2023-04-06T13:49:19;0.00;;;0.00;;
22107;SDS011;11220;48.812;9.128;2023-04-06T13:51:45;0.10;;;0.10;;
22107;SDS011;11220;48.812;9.128;2023-04-06T13:54:10;0.10;;;0.10;;
22107;SDS011;11220;48.812;9.128;2023-04-06T13:56:36;0.10;;;0.10;;
22107;SDS011;11220;48.812;9.128;2023-04-06T13:59:02;0.10;;;0.10;;
22107;SDS011;11220;48.812;9.128;2023-04-06T14:01:28;0.10;;;0.10;;
22107;SDS011;11220;48.812;9.128;2023-04-06T14:03:53;0.10;;;0.10;;
22107;SDS011;11220;48.812;9.128;2023-04-06T14:06:19;0.15;;;0.15;;
22107;SDS011;11220;48.812;9.128;2023-04-06T14:08:45;0.00;;;0.00;;
22107;SDS011;11220;48.812;9.128;2023-04-06T14:11:11;0.20;;;0.05;;
22107;SDS011;11220;48.812;9.128;2023-04-06T14:13:37;0.05;;;0.05;;
22107;SDS011;11220;48.812;9.128;2023-04-06T14:16:03;0.10;;;0.10;;
22107;SDS011;11220;48.812;9.128;2023-04-06T14:18:29;0.10;;;0.10;;
22107;SDS011;11220;48.812;9.128;2023-04-06T14:20:56;0.10;;;0.10;;
22107;SDS011;11220;48.812;9.128;2023-04-06T14:23:22;0.10;;;0.10;;
22107;SDS011;11220;48.812;9.128;2023-04-06T14:25:50;0.13;;;0.10;;
22107;SDS011;11220;48.812;9.128;2023-04-06T14:28:16;0.10;;;0.10;;
22107;SDS011;11220;48.812;9.128;2023-04-06T14:30:42;0.15;;;0.10;;
22107;SDS011;11220;48.812;9.128;2023-04-06T14:33:08;0.20;;;0.20;;
22107;SDS011;11220;48.812;9.128;2023-04-06T14:35:37;0.10;;;0.10;;
22107;SDS011;11220;48.812;9.128;2023-04-06T14:38:03;0.22;;;0.20;;
22107;SDS011;11220;48.812;9.128;2023-04-06T14:40:28;0.20;;;0.20;;
22107;SDS011;11220;48.812;9.128;2023-04-06T14:42:54;0.10;;;0.10;;
22107;SDS011;11220;48.812;9.128;2023-04-06T14:45:21;0.20;;;0.20;;